Time;durP1;ratioP1;P1;durP2;ratioP2;P2;SDS_P1;SDS_P2;PMS_P1;PMS_P2;Temp;Humidity;BMP_temperature;BMP_pressure;BME280_temperature;BME280_humidity;BME280_pressure;Samples;Min_cycle;Max_cycle;Signal;HPM_P1;HPM_P2
2024/01/31 00:02:22;;;;;;;;;;;;;;;21.54;34.67;103325.25;5073997;28;19916;-53
2024/01/31 00:04:47;;;;;;;;;;;;;;;21.53;34.78;103318.09;5073630;28;19917;-54
2024/01/31 00:07:13;;;;;;;;;;;;;;;21.51;34.55;103316.53;5074935;28;20007;-53
2024/01/31 00:09:38;;;;;;;;;;;;;;;21.48;34.77;103314.91;5074020;28;20009;-48
2024/01/31 00:12:03;;;;;;;;;;;;;;;21.46;34.56;103316.91;5075343;28;19913;-46
2024/01/31 00:14:28;;;;;;;;;;;;;;;21.44;34.63;103316.16;5071122;28;19923;-49
2024/01/31 00:16:53;;;;;;;;;;;;;;;21.43;34.77;103320.72;5074836;28;19972;-51
2024/01/31 00:19:19;;;;;;;;;;;;;;;21.42;34.72;103319.00;5076137;28;19942;-50
2024/01/31 00:21:44;;;;;;;;;;;;;;;21.41;34.80;103316.44;5074690;28;19924;-52
2024/01/31 00:24:09;;;;;;;;;;;;;;;21.39;34.84;103319.25;5071555;28;19917;-53
2024/01/31 00:26:35;;;;;;;;;;;;;;;21.37;34.85;103333.91;5074574;28;19913;-54
2024/01/31 00:29:00;;;;;;;;;;;;;;;21.35;34.81;103346.69;5073577;28;20335;-52
2024/01/31 00:31:25;;;;;;;;;;;;;;;21.34;34.79;103353.94;5071985;28;19913;-51
2024/01/31 00:33:50;;;;;;;;;;;;;;;21.32;34.82;103366.72;5072857;28;19936;-54
2024/01/31 00:36:15;;;;;;;;;;;;;;;21.31;34.64;103364.13;5079022;28;19922;-51
2024/01/31 00:38:41;;;;;;;;;;;;;;;21.28;34.64;103373.38;5072355;28;19924;-52
2024/01/31 00:41:06;;;;;;;;;;;;;;;21.25;34.57;103373.63;5074786;28;19940;-53
2024/01/31 00:43:31;;;;;;;;;;;;;;;21.25;34.62;103383.59;5075036;28;19956;-50
2024/01/31 00:45:56;;;;;;;;;;;;;;;21.23;34.62;103375.56;5069758;28;19976;-52
2024/01/31 00:48:21;;;;;;;;;;;;;;;21.21;34.55;103380.25;5070097;28;19924;-50
2024/01/31 00:50:47;;;;;;;;;;;;;;;21.19;34.60;103377.66;5070188;28;20011;-53
2024/01/31 00:53:12;;;;;;;;;;;;;;;21.19;34.86;103384.91;5073413;28;19916;-53
2024/01/31 00:55:37;;;;;;;;;;;;;;;21.16;34.95;103375.22;5073980;28;19952;-51
2024/01/31 00:58:02;;;;;;;;;;;;;;;21.14;34.89;103377.19;5060830;28;19984;-53
2024/01/31 01:00:27;;;;;;;;;;;;;;;21.12;34.79;103381.00;5053780;28;19917;-50
2024/01/31 01:02:53;;;;;;;;;;;;;;;21.11;34.73;103376.56;5056020;28;19913;-54
2024/01/31 01:05:20;;;;;;;;;;;;;;;21.09;34.74;103384.81;5054128;28;20398;-52
2024/01/31 01:07:45;;;;;;;;;;;;;;;21.07;34.72;103378.69;5054493;28;19917;-50
2024/01/31 01:10:14;;;;;;;;;;;;;;;21.06;34.91;103386.88;5053027;28;19959;-53
2024/01/31 01:12:39;;;;;;;;;;;;;;;21.03;34.93;103379.91;5035213;28;19936;-49
2024/01/31 01:15:05;;;;;;;;;;;;;;;21.03;35.02;103381.75;5053033;28;19913;-53
2024/01/31 01:17:30;;;;;;;;;;;;;;;21.01;35.08;103381.84;5056486;28;20479;-53
2024/01/31 01:19:56;;;;;;;;;;;;;;;21.01;35.09;103376.44;5048930;28;19920;-53
2024/01/31 01:22:21;;;;;;;;;;;;;;;20.99;35.10;103378.44;5051229;28;19925;-51
2024/01/31 01:24:46;;;;;;;;;;;;;;;20.97;35.03;103383.94;5051534;28;19921;-51
2024/01/31 01:27:11;;;;;;;;;;;;;;;20.96;34.94;103384.94;5055360;28;19928;-50
2024/01/31 01:29:36;;;;;;;;;;;;;;;20.94;34.92;103373.38;5052246;28;19940;-52
2024/01/31 01:32:02;;;;;;;;;;;;;;;20.93;34.79;103377.06;5054135;28;19919;-52
2024/01/31 01:34:27;;;;;;;;;;;;;;;20.92;34.86;103377.19;5051283;28;19942;-48
2024/01/31 01:36:52;;;;;;;;;;;;;;;20.90;35.22;103369.19;5050941;28;19913;-49
2024/01/31 01:39:18;;;;;;;;;;;;;;;20.90;35.06;103377.31;5050421;28;19927;-53
2024/01/31 01:41:47;;;;;;;;;;;;;;;20.88;34.89;103373.84;5048186;28;19924;-54
2024/01/31 01:44:14;;;;;;;;;;;;;;;20.87;34.87;103374.84;5050425;28;19923;-53
2024/01/31 01:46:39;;;;;;;;;;;;;;;20.86;35.18;103366.88;5049634;28;19913;-50
2024/01/31 01:49:04;;;;;;;;;;;;;;;20.84;35.07;103372.38;5053192;28;19917;-51
2024/01/31 01:51:29;;;;;;;;;;;;;;;20.83;34.93;103361.69;5056001;28;19917;-55
2024/01/31 01:53:55;;;;;;;;;;;;;;;20.82;34.96;103368.94;5034799;28;20054;-51
2024/01/31 01:56:20;;;;;;;;;;;;;;;20.81;35.23;103367.19;5051249;28;19913;-51
2024/01/31 01:58:47;;;;;;;;;;;;;;;20.79;35.14;103361.06;5053679;28;20746;-48
2024/01/31 02:01:12;;;;;;;;;;;;;;;20.78;35.27;103363.91;5031920;28;19917;-48
2024/01/31 02:03:37;;;;;;;;;;;;;;;20.78;35.29;103369.31;5034707;28;19951;-52
2024/01/31 02:06:03;;;;;;;;;;;;;;;20.75;35.32;103373.09;5052690;28;19935;-52
2024/01/31 02:08:29;;;;;;;;;;;;;;;20.74;35.07;103368.69;5035260;28;19921;-50
2024/01/31 02:10:54;;;;;;;;;;;;;;;20.72;35.00;103366.09;5052293;28;19965;-52
2024/01/31 02:13:20;;;;;;;;;;;;;;;20.71;35.12;103360.81;5053452;28;20368;-50
2024/01/31 02:15:51;;;;;;;;;;;;;;;20.70;35.08;103364.50;5053163;28;20826;-51
2024/01/31 02:18:16;;;;;;;;;;;;;;;20.69;35.32;103368.19;5052103;28;19921;-49
2024/01/31 02:20:42;;;;;;;;;;;;;;;20.67;35.10;103368.31;5052487;28;19975;-52
2024/01/31 02:23:07;;;;;;;;;;;;;;;20.67;35.10;103373.72;5051974;28;19917;-51
2024/01/31 02:25:32;;;;;;;;;;;;;;;20.65;35.20;103366.72;5050925;28;19913;-51
2024/01/31 02:27:57;;;;;;;;;;;;;;;20.64;35.23;103370.38;5050622;28;19913;-49
2024/01/31 02:30:22;;;;;;;;;;;;;;;20.62;35.09;103378.63;5047816;28;19920;-50
2024/01/31 02:32:47;;;;;;;;;;;;;;;20.61;35.27;103370.66;5048498;28;19913;-50
2024/01/31 02:35:13;;;;;;;;;;;;;;;20.58;35.25;103366.31;5051429;28;19923;-50
2024/01/31 02:37:41;;;;;;;;;;;;;;;20.58;35.26;103376.28;5054524;28;19917;-50
2024/01/31 02:40:07;;;;;;;;;;;;;;;20.56;35.30;103375.53;5037740;28;19913;-50
2024/01/31 02:42:32;;;;;;;;;;;;;;;20.56;35.50;103378.22;5049041;28;19928;-52
2024/01/31 02:44:57;;;;;;;;;;;;;;;20.54;35.36;103378.34;5048428;28;20366;-49
2024/01/31 02:47:23;;;;;;;;;;;;;;;20.53;35.28;103386.59;5048668;28;19913;-51
2024/01/31 02:49:48;;;;;;;;;;;;;;;20.51;35.53;103381.28;5052608;28;19913;-53
2024/01/31 02:52:13;;;;;;;;;;;;;;;20.50;35.29;103381.41;5053519;28;19917;-48
2024/01/31 02:54:38;;;;;;;;;;;;;;;20.49;35.28;103363.50;5049253;28;19944;-48
2024/01/31 02:57:04;;;;;;;;;;;;;;;20.47;35.49;103363.56;5049599;28;19928;-49
2024/01/31 02:59:29;;;;;;;;;;;;;;;20.46;35.49;103353.72;5051318;28;19921;-50
2024/01/31 03:01:54;;;;;;;;;;;;;;;20.44;35.51;103347.59;5049940;28;19916;-49
2024/01/31 03:04:19;;;;;;;;;;;;;;;20.43;35.22;103348.56;5050629;28;19913;-48
2024/01/31 03:06:44;;;;;;;;;;;;;;;20.43;35.41;103335.06;5050467;28;20008;-53
2024/01/31 03:09:10;;;;;;;;;;;;;;;20.42;35.54;103317.13;5048131;28;19966;-50
2024/01/31 03:11:35;;;;;;;;;;;;;;;20.40;35.28;103314.56;5051206;28;20383;-50
2024/01/31 03:14:00;;;;;;;;;;;;;;;20.40;35.31;103319.97;5053562;28;19913;-50
2024/01/31 03:16:25;;;;;;;;;;;;;;;20.39;35.38;103328.16;5050046;28;19917;-50
2024/01/31 03:18:50;;;;;;;;;;;;;;;20.37;35.35;103335.53;5051285;28;19917;-49
2024/01/31 03:21:16;;;;;;;;;;;;;;;20.36;35.37;103331.97;5054498;28;20425;-52
2024/01/31 03:23:41;;;;;;;;;;;;;;;20.34;35.80;103333.94;5050125;28;20395;-51
2024/01/31 03:26:06;;;;;;;;;;;;;;;20.32;35.58;103344.00;5051196;28;19924;-48
2024/01/31 03:28:32;;;;;;;;;;;;;;;20.31;35.41;103336.88;5049240;28;19928;-53
2024/01/31 03:30:57;;;;;;;;;;;;;;;20.30;35.38;103340.53;5050239;28;20543;-51
2024/01/31 03:33:22;;;;;;;;;;;;;;;20.28;35.51;103334.41;5052979;28;19917;-49
2024/01/31 03:35:48;;;;;;;;;;;;;;;20.26;35.45;103322.84;5046561;28;19913;-53
2024/01/31 03:38:13;;;;;;;;;;;;;;;20.26;35.39;103327.41;5052573;28;19913;-51
2024/01/31 03:40:38;;;;;;;;;;;;;;;20.23;35.44;103326.66;5049725;28;19916;-52
2024/01/31 03:43:04;;;;;;;;;;;;;;;20.23;35.49;103326.66;5046966;28;19919;-50
2024/01/31 03:45:29;;;;;;;;;;;;;;;20.22;35.53;103322.25;5051110;28;19912;-51
2024/01/31 03:47:54;;;;;;;;;;;;;;;20.19;35.52;103322.50;5053048;28;19985;-49
2024/01/31 03:50:19;;;;;;;;;;;;;;;20.19;35.52;103327.88;5053785;28;19959;-48
2024/01/31 03:52:45;;;;;;;;;;;;;;;20.18;35.85;103328.88;5050444;28;19920;-50
2024/01/31 03:55:11;;;;;;;;;;;;;;;20.16;35.75;103325.41;5052850;28;19921;-51
2024/01/31 03:57:36;;;;;;;;;;;;;;;20.16;35.53;103328.13;5052095;28;19975;-49
2024/01/31 04:00:05;;;;;;;;;;;;;;;20.15;35.62;103317.44;5049771;28;19921;-49
2024/01/31 04:02:30;;;;;;;;;;;;;;;20.13;35.83;103322.94;5051818;28;19917;-49
2024/01/31 04:04:55;;;;;;;;;;;;;;;20.12;35.54;103318.53;5050423;28;19976;-48
2024/01/31 04:07:20;;;;;;;;;;;;;;;20.11;35.65;103324.06;5048076;28;19939;-52
2024/01/31 04:09:46;;;;;;;;;;;;;;;20.08;35.58;103317.03;5050272;28;19925;-50
2024/01/31 04:12:11;;;;;;;;;;;;;;;20.09;35.55;103315.19;5050242;28;19922;-52
2024/01/31 04:14:36;;;;;;;;;;;;;;;20.07;35.69;103311.78;5050977;28;19921;-53
2024/01/31 04:17:01;;;;;;;;;;;;;;;20.06;35.83;103318.16;5031932;28;19913;-51
2024/01/31 04:19:26;;;;;;;;;;;;;;;20.03;35.67;103313.84;5053446;28;19996;-50
2024/01/31 04:21:53;;;;;;;;;;;;;;;20.02;35.74;103312.13;5054507;28;19921;-53
2024/01/31 04:24:18;;;;;;;;;;;;;;;20.01;35.65;103305.00;5053730;28;19975;-51
2024/01/31 04:26:46;;;;;;;;;;;;;;;20.00;35.78;103310.50;5055717;28;19916;-52
2024/01/31 04:29:11;;;;;;;;;;;;;;;19.98;35.68;103303.38;5053925;28;19913;-53
2024/01/31 04:31:36;;;;;;;;;;;;;;;19.97;35.70;103300.81;5049836;28;20014;-50
2024/01/31 04:34:04;;;;;;;;;;;;;;;19.96;35.70;103302.66;5054278;28;19924;-53
2024/01/31 04:36:30;;;;;;;;;;;;;;;19.94;35.66;103299.22;5054580;28;19988;-49
2024/01/31 04:38:55;;;;;;;;;;;;;;;19.93;35.89;103297.50;5050203;28;19917;-51
2024/01/31 04:41:20;;;;;;;;;;;;;;;19.93;35.91;103307.44;5051448;28;19991;-50
2024/01/31 04:43:45;;;;;;;;;;;;;;;19.92;35.82;103298.47;5056111;28;19942;-54
2024/01/31 04:46:12;;;;;;;;;;;;;;;19.91;35.72;103307.53;5055651;28;19920;-53
2024/01/31 04:48:37;;;;;;;;;;;;;;;19.91;35.76;103299.44;5059020;28;20372;-50
2024/01/31 04:51:03;;;;;;;;;;;;;;;19.90;35.95;103305.81;5055056;28;19923;-54
2024/01/31 04:53:28;;;;;;;;;;;;;;;19.91;35.70;103306.66;5051957;28;19917;-52
2024/01/31 04:55:53;;;;;;;;;;;;;;;19.90;35.98;103308.50;5051820;28;19999;-51
2024/01/31 04:58:18;;;;;;;;;;;;;;;19.89;35.75;103306.81;5070157;28;19931;-50
2024/01/31 05:00:43;;;;;;;;;;;;;;;19.89;35.92;103300.53;5079221;28;19919;-51
2024/01/31 05:03:09;;;;;;;;;;;;;;;19.89;35.96;103309.50;5070303;28;19959;-54
2024/01/31 05:05:34;;;;;;;;;;;;;;;19.90;35.93;103300.41;5053519;28;19970;-51
2024/01/31 05:07:59;;;;;;;;;;;;;;;19.91;35.67;103295.88;5076606;28;19942;-53
2024/01/31 05:10:24;;;;;;;;;;;;;;;19.90;35.72;103292.31;5076878;28;19976;-51
2024/01/31 05:12:49;;;;;;;;;;;;;;;19.90;35.67;103305.81;5076484;28;19979;-53
2024/01/31 05:15:15;;;;;;;;;;;;;;;19.92;35.79;103305.69;5074748;28;20045;-52
2024/01/31 05:17:40;;;;;;;;;;;;;;;19.92;36.01;103303.88;5070388;28;20045;-51
2024/01/31 05:20:05;;;;;;;;;;;;;;;19.93;35.84;103307.44;5071303;28;19920;-53
2024/01/31 05:22:31;;;;;;;;;;;;;;;19.94;36.00;103307.31;5067933;28;20441;-54
2024/01/31 05:24:56;;;;;;;;;;;;;;;19.95;35.90;103306.31;5070478;28;19913;-55
2024/01/31 05:27:21;;;;;;;;;;;;;;;19.97;35.91;103304.38;5072290;28;19925;-53
2024/01/31 05:29:46;;;;;;;;;;;;;;;19.99;35.93;103304.25;5075671;28;19927;-55
2024/01/31 05:32:12;;;;;;;;;;;;;;;20.00;36.13;103292.47;5071814;28;19917;-49
2024/01/31 05:34:40;;;;;;;;;;;;;;;20.03;36.03;103294.94;5071841;28;19912;-52
2024/01/31 05:37:05;;;;;;;;;;;;;;;20.04;35.98;103295.78;5070318;28;19923;-49
2024/01/31 05:39:30;;;;;;;;;;;;;;;20.06;35.92;103294.72;5071844;28;19952;-49
2024/01/31 05:41:56;;;;;;;;;;;;;;;20.09;35.97;103285.50;5072351;28;20395;-51
2024/01/31 05:44:21;;;;;;;;;;;;;;;20.10;35.90;103284.53;5070686;28;19916;-54
2024/01/31 05:46:47;;;;;;;;;;;;;;;20.12;35.92;103285.25;5072551;28;20475;-54
2024/01/31 05:49:13;;;;;;;;;;;;;;;20.14;36.26;103286.03;5067053;28;19917;-52
2024/01/31 05:51:38;;;;;;;;;;;;;;;20.17;36.32;103293.84;5069395;28;19939;-53
2024/01/31 05:54:03;;;;;;;;;;;;;;;20.18;36.47;103285.66;5069073;28;19916;-50
2024/01/31 05:56:29;;;;;;;;;;;;;;;20.20;36.43;103283.69;5069465;28;19913;-48
2024/01/31 05:58:54;;;;;;;;;;;;;;;20.23;36.16;103288.00;5053249;28;19921;-50
2024/01/31 06:01:19;;;;;;;;;;;;;;;20.25;36.15;103286.03;5049894;28;19953;-51
2024/01/31 06:03:44;;;;;;;;;;;;;;;20.28;36.13;103290.34;5049395;28;19913;-50
2024/01/31 06:06:09;;;;;;;;;;;;;;;20.31;36.20;103282.00;5051207;28;19917;-52
2024/01/31 06:08:34;;;;;;;;;;;;;;;20.33;36.31;103270.06;5047861;28;19917;-50
2024/01/31 06:11:04;;;;;;;;;;;;;;;20.35;36.43;103270.81;5051487;28;19933;-52
2024/01/31 06:13:29;;;;;;;;;;;;;;;20.38;36.26;103267.88;5053238;28;19967;-52
2024/01/31 06:15:55;;;;;;;;;;;;;;;20.41;36.17;103264.06;5050805;28;20360;-49
2024/01/31 06:18:22;;;;;;;;;;;;;;;20.44;36.58;103261.13;5051683;28;20342;-52
2024/01/31 06:20:47;;;;;;;;;;;;;;;20.46;36.26;103260.00;5052086;28;19976;-54
2024/01/31 06:23:12;;;;;;;;;;;;;;;20.51;36.05;103250.72;5050144;28;19966;-49
2024/01/31 06:25:38;;;;;;;;;;;;;;;20.54;36.00;103258.59;5046603;28;19936;-56
2024/01/31 06:28:03;;;;;;;;;;;;;;;20.56;36.00;103257.50;5051032;28;19972;-54
2024/01/31 06:30:33;;;;;;;;;;;;;;;20.59;36.28;103242.84;5050506;28;19917;-52
2024/01/31 06:33:06;;;;;;;;;;;;;;;20.62;36.05;103238.06;5034208;28;19988;-50
2024/01/31 06:35:31;;;;;;;;;;;;;;;20.65;35.85;103231.56;5056012;28;20375;-50
2024/01/31 06:37:56;;;;;;;;;;;;;;;20.68;35.84;103236.69;5053620;28;19988;-55
2024/01/31 06:40:22;;;;;;;;;;;;;;;20.72;35.96;103246.28;5049158;28;19986;-54
2024/01/31 06:42:48;;;;;;;;;;;;;;;20.75;35.88;103234.38;5050858;28;19924;-52
2024/01/31 06:45:14;;;;;;;;;;;;;;;20.79;35.90;103238.56;5053084;28;20432;-52
2024/01/31 06:47:39;;;;;;;;;;;;;;;20.82;35.98;103257.22;5049319;28;19952;-52
2024/01/31 06:50:05;;;;;;;;;;;;;;;20.85;35.63;103257.81;5049193;28;19917;-50
2024/01/31 06:52:30;;;;;;;;;;;;;;;20.86;35.86;103264.97;5052038;28;19957;-56
2024/01/31 06:54:55;;;;;;;;;;;;;;;20.90;35.60;103287.22;5054071;28;19940;-52
2024/01/31 06:57:21;;;;;;;;;;;;;;;20.92;35.67;103304.16;5063041;28;19920;-51
2024/01/31 06:59:48;;;;;;;;;;;;;;;20.94;35.34;103315.69;5069815;28;20312;-54
2024/01/31 07:02:13;;;;;;;;;;;;;;;20.97;35.54;103326.28;5067178;28;19924;-55
2024/01/31 07:04:38;;;;;;;;;;;;;;;21.01;35.51;103337.72;5068725;28;19913;-52
2024/01/31 07:07:03;;;;;;;;;;;;;;;21.05;35.55;103328.38;5069699;28;19913;-51
2024/01/31 07:09:29;;;;;;;;;;;;;;;21.07;35.56;103337.22;5072819;28;19934;-54
2024/01/31 07:11:56;;;;;;;;;;;;;;;21.08;35.42;103339.81;5072468;28;19919;-51
2024/01/31 07:14:21;;;;;;;;;;;;;;;21.10;35.34;103351.34;5062670;28;19923;-50
2024/01/31 07:16:46;;;;;;;;;;;;;;;21.11;35.22;103355.81;5070345;28;19956;-50
2024/01/31 07:19:11;;;;;;;;;;;;;;;21.14;35.28;103354.69;5071156;28;20396;-54
2024/01/31 07:21:36;;;;;;;;;;;;;;;21.13;35.13;103359.22;5071922;28;20396;-50
2024/01/31 07:24:02;;;;;;;;;;;;;;;21.17;35.17;103371.53;5071467;28;19921;-53
2024/01/31 07:26:27;;;;;;;;;;;;;;;21.18;35.17;103372.38;5067232;28;20280;-51
2024/01/31 07:28:52;;;;;;;;;;;;;;;21.20;35.09;103378.53;5070123;28;19917;-54
2024/01/31 07:31:18;;;;;;;;;;;;;;;21.22;35.08;103376.56;5068751;28;19913;-52
2024/01/31 07:33:43;;;;;;;;;;;;;;;21.23;35.15;103387.25;5068769;28;19923;-53
2024/01/31 07:36:08;;;;;;;;;;;;;;;21.24;35.08;103380.03;5070023;28;19955;-50
2024/01/31 07:38:34;;;;;;;;;;;;;;;21.26;34.89;103385.28;5053970;28;19943;-55
2024/01/31 07:40:59;;;;;;;;;;;;;;;21.30;34.86;103384.06;5068124;28;19913;-52
2024/01/31 07:43:24;;;;;;;;;;;;;;;21.31;35.00;103386.63;5071497;28;19965;-51
2024/01/31 07:45:49;;;;;;;;;;;;;;;21.33;35.00;103400.94;5071674;28;19923;-51
2024/01/31 07:48:14;;;;;;;;;;;;;;;21.35;34.95;103398.09;5071707;28;19916;-51
2024/01/31 07:50:40;;;;;;;;;;;;;;;21.34;34.82;103391.84;5062017;28;19916;-46
2024/01/31 07:53:05;;;;;;;;;;;;;;;21.38;34.67;103381.63;5045838;28;20371;-53
2024/01/31 07:55:31;;;;;;;;;;;;;;;21.39;34.55;103378.78;5075852;28;19913;-53
2024/01/31 07:57:56;;;;;;;;;;;;;;;21.40;34.63;103371.53;5069044;28;19920;-53
2024/01/31 08:00:21;;;;;;;;;;;;;;;21.40;34.67;103366.97;5068428;28;19970;-49
2024/01/31 08:02:47;;;;;;;;;;;;;;;21.42;34.90;103362.31;5070256;28;19924;-50
2024/01/31 08:05:12;;;;;;;;;;;;;;;21.44;34.81;103357.59;5070767;28;19924;-50
2024/01/31 08:07:37;;;;;;;;;;;;;;;21.48;34.87;103360.06;5073017;28;19967;-53
2024/01/31 08:10:03;;;;;;;;;;;;;;;21.48;34.83;103366.34;5075107;28;19913;-53
2024/01/31 08:12:28;;;;;;;;;;;;;;;21.49;34.82;103370.75;5072198;28;19916;-49
2024/01/31 08:14:53;;;;;;;;;;;;;;;21.52;34.79;103356.97;5073143;28;20363;-53
2024/01/31 08:17:18;;;;;;;;;;;;;;;21.54;34.87;103352.31;5072040;28;20474;-52
2024/01/31 08:19:43;;;;;;;;;;;;;;;21.55;34.78;103358.59;5077876;28;19924;-49
2024/01/31 08:22:09;;;;;;;;;;;;;;;21.57;34.67;103356.59;5072997;28;19963;-50
2024/01/31 08:24:34;;;;;;;;;;;;;;;21.59;34.51;103355.50;5074925;28;19916;-51
2024/01/31 08:26:59;;;;;;;;;;;;;;;21.61;34.37;103353.50;5074398;28;19912;-49
2024/01/31 08:29:24;;;;;;;;;;;;;;;21.62;34.71;103357.06;5070267;28;19916;-53
2024/01/31 08:31:49;;;;;;;;;;;;;;;21.64;34.36;103352.41;5073445;28;19920;-52
2024/01/31 08:34:15;;;;;;;;;;;;;;;21.64;34.31;103358.69;5074568;28;19939;-52
2024/01/31 08:36:41;;;;;;;;;;;;;;;21.65;34.37;103348.72;5073326;28;19955;-51
2024/01/31 08:39:09;;;;;;;;;;;;;;;21.67;34.50;103352.16;5072450;28;19920;-52
2024/01/31 08:41:34;;;;;;;;;;;;;;;21.69;34.48;103334.78;5073808;28;19916;-53
2024/01/31 08:44:00;;;;;;;;;;;;;;;21.69;34.43;103328.50;5070649;28;19912;-51
2024/01/31 08:46:27;;;;;;;;;;;;;;;21.71;34.16;103338.25;5073127;28;19943;-52
2024/01/31 08:48:52;;;;;;;;;;;;;;;21.73;34.08;103327.25;5071780;28;19924;-50
2024/01/31 08:51:18;;;;;;;;;;;;;;;21.74;34.02;103326.28;5070557;28;20055;-53
2024/01/31 08:53:44;;;;;;;;;;;;;;;21.76;34.09;103328.88;5072727;28;19935;-49
2024/01/31 08:56:09;;;;;;;;;;;;;;;21.75;34.15;103322.59;5069140;28;19919;-53
2024/01/31 08:58:34;;;;;;;;;;;;;;;21.78;34.18;103314.19;5073580;28;19946;-49
2024/01/31 09:01:00;;;;;;;;;;;;;;;21.79;34.15;103307.81;5071922;28;19913;-51
2024/01/31 09:03:25;;;;;;;;;;;;;;;21.79;34.01;103306.94;5071719;28;19917;-53
2024/01/31 09:05:50;;;;;;;;;;;;;;;21.79;34.02;103310.53;5076018;28;19917;-51
2024/01/31 09:08:16;;;;;;;;;;;;;;;21.78;33.89;103297.09;5071623;28;19917;-49
2024/01/31 09:10:41;;;;;;;;;;;;;;;21.78;33.97;103307.91;5067741;28;19912;-52
2024/01/31 09:13:06;;;;;;;;;;;;;;;21.78;34.01;103297.94;5070075;28;20311;-49
2024/01/31 09:15:31;;;;;;;;;;;;;;;21.79;34.07;103296.09;5055739;28;20260;-52
2024/01/31 09:17:56;;;;;;;;;;;;;;;21.80;34.05;103305.97;5073317;28;19928;-48
2024/01/31 09:20:21;;;;;;;;;;;;;;;21.81;34.11;103308.53;5072871;28;19955;-49
2024/01/31 09:22:47;;;;;;;;;;;;;;;21.82;33.89;103296.69;5070579;28;20842;-52
2024/01/31 09:25:14;;;;;;;;;;;;;;;21.81;34.11;103308.53;5061814;28;19921;-50
2024/01/31 09:27:40;;;;;;;;;;;;;;;21.83;33.89;103311.94;5072568;28;19913;-49
2024/01/31 09:30:05;;;;;;;;;;;;;;;21.85;33.81;103312.69;5073970;28;19970;-50
2024/01/31 09:32:30;;;;;;;;;;;;;;;21.87;33.93;103309.84;5072884;28;20407;-51
2024/01/31 09:34:56;;;;;;;;;;;;;;;21.87;33.69;103302.56;5073139;28;19916;-50
2024/01/31 09:37:21;;;;;;;;;;;;;;;21.86;33.99;103295.44;5072626;28;20420;-50
2024/01/31 09:39:46;;;;;;;;;;;;;;;21.86;33.87;103292.75;5071476;28;20421;-50
2024/01/31 09:42:11;;;;;;;;;;;;;;;21.87;33.58;103283.63;5069654;28;19942;-51
2024/01/31 09:44:37;;;;;;;;;;;;;;;21.87;33.97;103286.31;5069956;28;19916;-55
2024/01/31 09:47:02;;;;;;;;;;;;;;;21.88;33.61;103288.06;5076088;28;19917;-51
2024/01/31 09:49:27;;;;;;;;;;;;;;;21.88;33.81;103296.19;5061844;28;19916;-52
2024/01/31 09:52:02;;;;;;;;;;;;;;;21.90;33.82;103296.06;5069612;28;19912;-51
2024/01/31 09:54:27;;;;;;;;;;;;;;;21.92;33.82;103297.66;5067734;28;19916;-50
2024/01/31 09:56:53;;;;;;;;;;;;;;;21.93;33.67;103290.38;5066580;28;19931;-51
2024/01/31 09:59:18;;;;;;;;;;;;;;;21.92;33.63;103285.97;5051657;28;19916;-52
2024/01/31 10:01:44;;;;;;;;;;;;;;;21.93;33.76;103282.25;5050719;28;20060;-49
2024/01/31 10:04:10;;;;;;;;;;;;;;;21.94;33.47;103278.56;5034737;28;19913;-49
2024/01/31 10:06:35;;;;;;;;;;;;;;;21.95;33.87;103277.56;5048914;28;19963;-50
2024/01/31 10:09:02;;;;;;;;;;;;;;;21.99;33.55;103287.13;5050069;28;19924;-48
2024/01/31 10:11:27;;;;;;;;;;;;;;;21.98;33.58;103281.84;5049393;28;19975;-53
2024/01/31 10:13:53;;;;;;;;;;;;;;;22.00;33.75;103293.41;5054920;28;19921;-49
2024/01/31 10:16:18;;;;;;;;;;;;;;;22.01;33.37;103292.44;5053115;28;19967;-52
2024/01/31 10:18:43;;;;;;;;;;;;;;;22.01;33.39;103289.72;5047358;28;21099;-49
2024/01/31 10:21:09;;;;;;;;;;;;;;;22.03;33.40;103280.47;5049711;28;19917;-51
2024/01/31 10:23:35;;;;;;;;;;;;;;;22.03;33.40;103276.91;5048944;28;19955;-43
2024/01/31 10:26:00;;;;;;;;;;;;;;;22.03;33.31;103279.59;5052454;28;19913;-49
2024/01/31 10:28:25;;;;;;;;;;;;;;;22.05;33.27;103283.91;5051923;28;19968;-50
2024/01/31 10:30:50;;;;;;;;;;;;;;;22.08;33.22;103280.06;5034401;28;19955;-48
2024/01/31 10:33:15;;;;;;;;;;;;;;;22.07;33.23;103278.34;5052025;28;19912;-49
2024/01/31 10:35:41;;;;;;;;;;;;;;;22.12;33.26;103270.69;5048932;28;19919;-48
2024/01/31 10:38:07;;;;;;;;;;;;;;;22.13;33.24;103267.00;5052258;28;19974;-47
2024/01/31 10:40:33;;;;;;;;;;;;;;;22.14;33.45;103272.31;5053353;28;19920;-49
2024/01/31 10:42:58;;;;;;;;;;;;;;;22.16;33.18;103269.47;5052250;28;19969;-51
2024/01/31 10:45:23;;;;;;;;;;;;;;;22.14;33.40;103269.59;5033549;28;19913;-51
2024/01/31 10:47:48;;;;;;;;;;;;;;;22.18;33.17;103264.78;5051939;28;19920;-52
2024/01/31 10:50:13;;;;;;;;;;;;;;;22.19;32.99;103264.63;5052305;28;19920;-54
2024/01/31 10:52:38;;;;;;;;;;;;;;;22.19;32.91;103261.94;5024156;28;19978;-54
2024/01/31 10:55:04;;;;;;;;;;;;;;;22.23;32.92;103250.81;5034122;28;19981;-50
2024/01/31 10:57:29;;;;;;;;;;;;;;;22.26;33.01;103239.69;5022591;28;20040;-53
2024/01/31 10:59:58;;;;;;;;;;;;;;;22.27;33.11;103227.88;5049621;28;19928;-50
2024/01/31 11:02:27;;;;;;;;;;;;;;;22.31;32.89;103224.78;5031704;28;19973;-48
2024/01/31 11:04:53;;;;;;;;;;;;;;;22.33;32.92;103224.63;5053072;28;20415;-51
2024/01/31 11:07:18;;;;;;;;;;;;;;;22.37;33.00;103226.06;5053381;28;20362;-51
2024/01/31 11:09:44;;;;;;;;;;;;;;;22.40;33.20;103218.53;5031986;28;20360;-50
2024/01/31 11:12:14;;;;;;;;;;;;;;;22.43;32.98;103220.13;5030115;28;20011;-50
2024/01/31 11:14:39;;;;;;;;;;;;;;;22.45;32.98;103207.28;5048581;28;19940;-51
2024/01/31 11:17:05;;;;;;;;;;;;;;;22.49;33.21;103206.00;5047146;28;19976;-50
2024/01/31 11:19:30;;;;;;;;;;;;;;;22.52;33.03;103191.34;5048092;28;19913;-51
2024/01/31 11:21:55;;;;;;;;;;;;;;;22.51;33.19;103185.03;5048602;28;19917;-50
2024/01/31 11:24:23;;;;;;;;;;;;;;;22.52;33.10;103180.50;5049658;28;19913;-52
2024/01/31 11:26:48;;;;;;;;;;;;;;;22.52;33.01;103170.50;5056494;28;19939;-50
2024/01/31 11:29:15;;;;;;;;;;;;;;;22.55;33.12;103161.22;5052557;28;20016;-52
2024/01/31 11:31:40;;;;;;;;;;;;;;;22.55;33.38;103153.94;5052349;28;19913;-48
2024/01/31 11:34:05;;;;;;;;;;;;;;;22.56;33.14;103143.97;5036491;28;19985;-50
2024/01/31 11:36:30;;;;;;;;;;;;;;;22.59;33.45;103140.97;5038214;28;19913;-49
2024/01/31 11:38:56;;;;;;;;;;;;;;;22.65;33.15;103129.56;5040639;28;19913;-52
2024/01/31 11:41:22;;;;;;;;;;;;;;;22.70;32.82;103120.00;5055207;28;19921;-49
2024/01/31 11:43:47;;;;;;;;;;;;;;;22.73;33.13;103116.19;5052902;28;19921;-52
2024/01/31 11:46:12;;;;;;;;;;;;;;;22.73;33.28;103115.31;5048417;28;19927;-52
2024/01/31 11:48:38;;;;;;;;;;;;;;;22.72;33.34;103106.31;5052958;28;19927;-51
2024/01/31 11:51:04;;;;;;;;;;;;;;;22.77;33.30;103101.34;5052882;28;19933;-50
2024/01/31 11:53:29;;;;;;;;;;;;;;;22.78;33.45;103096.78;5055479;28;19923;-54
2024/01/31 11:55:54;;;;;;;;;;;;;;;22.79;33.21;103079.50;5033113;28;19924;-48
2024/01/31 11:58:19;;;;;;;;;;;;;;;22.82;33.16;103074.63;5040128;28;19993;-54
2024/01/31 12:00:45;;;;;;;;;;;;;;;22.83;33.29;103072.78;5055307;28;19921;-51
2024/01/31 12:03:10;;;;;;;;;;;;;;;22.89;33.21;103073.06;5040319;28;19913;-52
2024/01/31 12:05:35;;;;;;;;;;;;;;;22.90;33.13;103074.81;5050779;28;19939;-52
2024/01/31 12:08:00;;;;;;;;;;;;;;;22.92;32.94;103078.22;5053251;28;19917;-49
2024/01/31 12:10:26;;;;;;;;;;;;;;;22.99;33.05;103067.69;5051848;28;19972;-51
2024/01/31 12:12:51;;;;;;;;;;;;;;;22.99;33.07;103054.13;5054172;28;19914;-52
2024/01/31 12:15:16;;;;;;;;;;;;;;;23.02;32.79;103052.94;5052216;28;19921;-52
2024/01/31 12:17:42;;;;;;;;;;;;;;;23.06;32.87;103040.81;5053536;28;19921;-51
2024/01/31 12:20:12;;;;;;;;;;;;;;;23.05;32.78;103045.38;5057403;28;20334;-49
2024/01/31 12:22:40;;;;;;;;;;;;;;;23.05;32.54;103033.69;5050843;28;19948;-51
2024/01/31 12:25:06;;;;;;;;;;;;;;;23.07;32.73;103018.97;5050088;28;19921;-51
2024/01/31 12:27:31;;;;;;;;;;;;;;;23.06;32.79;103021.81;5050636;28;19951;-52